Guyton, Georgia
Current Conditions -  °F | °C
As of 4:53 PM on Sunday 21 Dec 2014 (Local Time) from KSAV Reporting Station
Light Rain Light Rain  
Wind Chill: 45°   Ceiling: 600
Heat Index: 48°   Visibility: 2mi
Dew Point: 45°   Wind: 7mph
Humidity: 89%   Direction: 50°NE
Pressure: 30.12"   Gusts: NA
Location:  32.34°N, 81.39°W
Report Text: KSAV 212153Z 05006KT 2SM -RA BR BKN006 OVC032 09/07 A3012 RMK AO2 RAB22 CIG 004V009 SLP199 P0001 T00890072
Loading
Personal Weather Stations






























Interactive Weather Map New forecast layout! Learn more

10-Day Weather Forecast

Advertisements
Track Severe Weather on mobile